Aérodrome :
LOGIN :

S'inscrire | Disclaimer

   EN    FR    IT 

 










Légende :    VFR   VFR Marginal   IFR   IFR Intensif   IFR Très Intensif
Visi : 
Plafond : 
>= 8 km
>= 3000ft
5 à 8 km
1000 à 3000 ft
1500m à 5 km
500 à 1000 ft
800 à 1500m
200 à 500 ft
< 800m
< 200 ft
Symboles :   Orages  Brouillard  Fortes neiges  Fortes précipitations  Vent > 20 kt
SIGMETs :   Divers  Orages  Givrage  Turbulence  Onde Orograph.  Cendres Volcan.






- Altitude de l'aérodrome : 479 ft
- Code IATA : DOL


LFRG - Deauville

DERNIER METAR :
  • 221200Z AUTO 13011KT 100V160 CAVOK 10/06 Q0995 TEMPO 13015G25KT

METARs EXPIRÉS :
  • 221130Z AUTO 13012KT 090V170 CAVOK 09/06 Q0996 TEMPO 13015G25KT
  • 221100Z AUTO 14012KT 100V170 9999 FEW013 OVC140 09/07 Q0996 TEMPO 13015G25KT
  • 221030Z AUTO 14010KT CAVOK 08/06 Q0997 TEMPO 13015G25KT
  • 221000Z AUTO 15009KT 9999 FEW037 BKN076 BKN096 07/06 Q0997 TEMPO 13015G25KT 4000 SHRA BKN007 BKN015TCU
  • 220930Z AUTO 16011KT 130V190 9999 -RA NSC 07/05 Q0998 TEMPO 13015G25KT 4000 SHRA BKN007 BKN015TCU

TAF TAF LFRG
Valide du 22 à 12h jusqu'au 22 à 21h UTC


221100Z 2212/2221 14010KT 9999 SCT030
TEMPO 2212/2221 13015G25KT
ATIS : +33 2 31 65 65 36



MET'MAP, la Météo Aéronautique d'un coup d'oeil ! - Copyright ORBIFLY Décembre 2007 - Disclaimer

ORBIFLY MET'MAP TEAM :

Programmation & Développement : Alexandra Zaïnal
Conception & Développement : Baudouin d'Aumeries
Co-Programmation & Développement : Marc-Olivier Méhu
Soutien technique & logistique : Manuel Goepfert

Contact : metmap@orbifly.com




SOURCES & CREDITS :

   NOAA